Latest Weather Observations for West Roebuck

IDW60801

Issued at 9:05 pm WST Thursday 23 October 2014 (issued every 30 minutes, with the page automatically refreshed every 10 minutes)

About weather observations | Map of weather stations | Latest weather observations for WA | Other Formats
Station Details ID: 003096 Name: WEST ROEBUCK Lat: -17.90 Lon: 122.31 Height: 32.0 m
Data from the previous 72 hours. | See also: Recent months for locations in Western Australia
Date/Time
WST
Temp
°C
App
Temp
°C
Dew
Point
Rel
Hum
%
Delta-T
°C
Wind Press
QNH
hPa
Press
MSL
hPa
Rain
since 9 am
mm
Dir
 
Spd
km/h
Gust
km/h
Spd
kts
Gust
kts
23/09:00pm 26.3 - - - - NNW 9 15 5 8 - - 0.0
23/08:30pm 26.4 - - - - W 7 11 4 6 - - 0.0
23/08:00pm 26.5 - - - - WNW 13 19 7 10 - - 0.0
23/07:30pm 26.6 - - - - NW 17 24 9 13 - - 0.0
23/07:00pm 26.6 - - - - NW 19 26 10 14 - - 0.0
23/06:30pm 26.8 - - - - NW 20 28 11 15 - - 0.0
23/06:00pm 27.1 - - - - NW 20 32 11 17 - - 0.0
23/05:30pm 27.6 - - - - NW 24 33 13 18 - - 0.0
23/05:00pm 28.9 - - - - NW 24 35 13 19 - - 0.0
23/04:30pm 29.8 - - - - NW 26 37 14 20 - - 0.0
23/04:00pm 30.9 - - - - NW 26 35 14 19 - - 0.0
23/03:30pm 31.7 - - - - NW 24 37 13 20 - - 0.0
23/03:00pm 32.3 - - - - NW 26 37 14 20 - - 0.0
23/02:30pm 33.4 - - - - WNW 28 35 15 19 - - 0.0
23/02:00pm 33.7 - - - - WNW 26 39 14 21 - - 0.0
23/01:30pm 34.4 - - - - WNW 24 35 13 19 - - 0.0
23/01:00pm 35.4 - - - - WNW 24 37 13 20 - - 0.0
23/12:30pm 35.7 - - - - NW 22 35 12 19 - - 0.0
23/12:00pm 36.0 - - - - NW 24 35 13 19 - - 0.0
23/11:30am 35.5 - - - - WNW 20 32 11 17 - - 0.0
23/11:00am 35.3 - - - - NW 20 33 11 18 - - 0.0
23/10:30am 34.7 - - - - NW 19 28 10 15 - - 0.0
23/10:00am 34.7 - - - - WNW 19 28 10 15 - - 0.0
23/09:30am 34.3 - - - - WNW 20 28 11 15 - - 0.0
23/09:00am 33.7 - - - - WNW 17 28 9 15 - - 0.0
23/08:30am 32.1 - - - - NW 15 20 8 11 - - 0.0
23/08:00am 30.6 - - - - NW 17 22 9 12 - - 0.0
23/07:30am 28.5 - - - - NNW 15 22 8 12 - - 0.0
23/07:00am 26.6 - - - - N 11 17 6 9 - - 0.0
23/06:30am 24.9 - - - - N 9 13 5 7 - - 0.0
23/06:00am 23.9 - - - - N 11 15 6 8 - - 0.0
23/05:30am 23.5 - - - - N 9 13 5 7 - - 0.0
23/05:00am 23.4 - - - - N 11 19 6 10 - - 0.0
23/04:30am 23.1 - - - - N 9 11 5 6 - - 0.0
23/04:00am 23.1 - - - - NNE 7 11 4 6 - - 0.0
23/03:30am 24.0 - - - - N 7 9 4 5 - - 0.0
23/03:00am 24.3 - - - - NW 11 17 6 9 - - 0.0
23/02:30am 24.4 - - - - WNW 11 13 6 7 - - 0.0
23/02:00am 24.4 - - - - NW 9 13 5 7 - - 0.0
23/01:30am 24.6 - - - - NW 7 13 4 7 - - 0.0
23/01:00am 24.4 - - - - W 11 13 6 7 - - 0.0
23/12:30am 24.4 - - - - NW 9 13 5 7 - - 0.0
23/12:00am 24.9 - - - - NW 7 11 4 6 - - 0.0
 
Date/Time
WST
Temp
°C
App
Temp
°C
Dew
Point
Rel
Hum
%
Delta-T
°C
Wind Press
QNH
hPa
Press
MSL
hPa
Rain
since 9 am
mm
Dir
 
Spd
km/h
Gust
km/h
Spd
kts
Gust
kts
22/11:30pm 25.3 - - - - NW 9 13 5 7 - - 0.0
22/11:00pm 25.4 - - - - WNW 11 15 6 8 - - 0.0
22/10:30pm 25.0 - - - - NW 13 17 7 9 - - 0.0
22/10:00pm 25.1 - - - - NW 13 17 7 9 - - 0.0
22/09:30pm 25.2 - - - - NW 13 19 7 10 - - 0.0
22/09:00pm 25.5 - - - - NW 15 22 8 12 - - 0.0
22/08:30pm 25.7 - - - - NNW 15 20 8 11 - - 0.0
22/08:00pm 25.9 - - - - NW 15 24 8 13 - - 0.0
22/07:30pm 26.3 - - - - NW 19 26 10 14 - - 0.0
22/07:00pm 26.4 - - - - NW 19 30 10 16 - - 0.0
22/06:30pm 26.7 - - - - NW 19 28 10 15 - - 0.0
22/06:00pm 27.0 - - - - NW 22 35 12 19 - - 0.0
22/05:30pm 27.9 - - - - NW 20 33 11 18 - - 0.0
22/05:00pm 28.7 - - - - NW 26 37 14 20 - - 0.0
22/04:30pm 29.8 - - - - NW 24 35 13 19 - - 0.0
22/04:00pm 30.6 - - - - NW 24 33 13 18 - - 0.0
22/03:30pm 31.4 - - - - NW 24 37 13 20 - - 0.0
22/03:00pm 32.3 - - - - NW 28 41 15 22 - - 0.0
22/02:30pm 32.5 - - - - WNW 28 37 15 20 - - 0.0
22/02:00pm 33.2 - - - - NW 26 39 14 21 - - 0.0
22/01:30pm 32.6 - - - - WNW 28 39 15 21 - - 0.0
22/01:00pm 33.0 - - - - WNW 28 39 15 21 - - 0.0
22/12:30pm 34.1 - - - - WNW 26 37 14 20 - - 0.0
22/12:00pm 35.5 - - - - NW 20 30 11 16 - - 0.0
22/11:30am 35.0 - - - - NNW 19 28 10 15 - - 0.0
22/11:00am 34.8 - - - - N 15 26 8 14 - - 0.0
22/10:30am 34.0 - - - - NW 17 24 9 13 - - 0.0
22/10:00am 34.3 - - - - NNE 7 15 4 8 - - 0.0
22/09:30am 33.0 - - - - WNW 7 15 4 8 - - 0.0
22/09:00am 31.9 - - - - WNW 11 20 6 11 - - 0.0
22/08:30am 30.5 - - - - NNW 15 20 8 11 - - 0.0
22/08:00am 28.9 - - - - NW 19 26 10 14 - - 0.0
22/07:30am 27.2 - - - - NNW 19 28 10 15 - - 0.0
22/07:00am 25.2 - - - - NNW 17 26 9 14 - - 0.0
22/06:30am 24.2 - - - - N 13 22 7 12 - - 0.0
22/06:00am 23.2 - - - - NNW 9 13 5 7 - - 0.0
22/05:30am 22.9 - - - - N 11 13 6 7 - - 0.0
22/05:00am 23.0 - - - - NNE 9 13 5 7 - - 0.0
22/04:30am 23.1 - - - - NNW 11 15 6 8 - - 0.0
22/04:00am 23.3 - - - - WNW 11 15 6 8 - - 0.0
22/03:30am 23.6 - - - - WNW 13 15 7 8 - - 0.0
22/03:00am 23.7 - - - - WNW 9 13 5 7 - - 0.0
22/02:30am 23.5 - - - - WNW 13 19 7 10 - - 0.0
22/02:00am 23.0 - - - - WNW 11 13 6 7 - - 0.0
22/01:30am 23.3 - - - - NW 11 15 6 8 - - 0.0
22/01:00am 23.3 - - - - NW 11 15 6 8 - - 0.0
22/12:30am 23.7 - - - - NW 11 15 6 8 - - 0.0
22/12:00am 23.7 - - - - NNW 9 13 5 7 - - 0.0
 
Date/Time
WST
Temp
°C
App
Temp
°C
Dew
Point
Rel
Hum
%
Delta-T
°C
Wind Press
QNH
hPa
Press
MSL
hPa
Rain
since 9 am
mm
Dir
 
Spd
km/h
Gust
km/h
Spd
kts
Gust
kts
21/11:30pm 23.9 - - - - NW 9 13 5 7 - - 0.0
21/11:00pm 24.0 - - - - NNW 9 13 5 7 - - 0.0
21/10:30pm 24.4 - - - - WNW 9 13 5 7 - - 0.0
21/10:00pm 24.8 - - - - WNW 9 15 5 8 - - 0.0
21/09:30pm 25.1 - - - - W 15 20 8 11 - - 0.0
21/09:00pm 24.8 - - - - W 15 20 8 11 - - 0.0
21/08:30pm 24.8 - - - - NW 11 15 6 8 - - 0.0
21/08:00pm 24.6 - - - - WNW 13 15 7 8 - - 0.0
21/07:30pm 25.2 - - - - WNW 9 15 5 8 - - 0.0
21/07:00pm 25.5 - - - - W 9 13 5 7 - - 0.0
21/06:30pm 26.1 - - - - WNW 11 15 6 8 - - 0.0
21/06:00pm 27.0 - - - - W 11 17 6 9 - - 0.0
21/05:30pm 28.4 - - - - W 17 22 9 12 - - 0.0
21/05:00pm 29.6 - - - - W 17 24 9 13 - - 0.0
21/04:30pm 30.5 - - - - WNW 20 26 11 14 - - 0.0
21/04:00pm 31.5 - - - - W 20 28 11 15 - - 0.0
21/03:30pm 32.6 - - - - WNW 22 32 12 17 - - 0.0
21/03:00pm 32.0 - - - - W 24 35 13 19 - - 0.0
21/02:30pm 33.1 - - - - W 22 30 12 16 - - 0.0
21/02:00pm 33.7 - - - - W 24 32 13 17 - - 0.0
21/01:30pm 34.4 - - - - W 20 30 11 16 - - 0.0
21/01:00pm 34.2 - - - - W 20 28 11 15 - - 0.0
21/12:30pm 33.8 - - - - WNW 20 30 11 16 - - 0.0
21/12:00pm 34.5 - - - - WNW 20 30 11 16 - - 0.0
21/11:30am 34.4 - - - - WNW 17 26 9 14 - - 0.0
21/11:00am 36.4 - - - - NW 13 17 7 9 - - 0.0
21/10:30am 35.2 - - - - WNW 6 13 3 7 - - 0.0
21/10:00am 33.6 - - - - SSW 4 11 2 6 - - 0.0
21/09:30am 32.0 - - - - SSW 7 13 4 7 - - 0.0
21/09:00am 30.1 - - - - SW 11 17 6 9 - - 0.0
21/08:30am 29.8 - - - - SSW 19 28 10 15 - - 0.0
21/08:00am 29.6 - - - - S 17 24 9 13 - - 0.0
21/07:30am 28.4 - - - - SSW 15 24 8 13 - - 0.0
21/07:00am 27.1 - - - - SSW 13 20 7 11 - - 0.0
21/06:30am 24.6 - - - - SW 9 13 5 7 - - 0.0
21/06:00am 22.4 - - - - SW 7 9 4 5 - - 0.0
21/05:30am 20.6 - - - - SSW 9 11 5 6 - - 0.0
21/05:00am 21.8 - - - - S 9 13 5 7 - - 0.0
21/04:30am 21.3 - - - - SW 2 6 1 3 - - 0.0
21/04:00am 21.6 - - - - SW 9 11 5 6 - - 0.0
21/03:30am 22.4 - - - - SW 9 11 5 6 - - 0.0
21/03:00am 22.4 - - - - WSW 11 13 6 7 - - 0.0
21/02:30am 21.7 - - - - W 13 17 7 9 - - 0.0
21/02:00am 21.2 - - - - WSW 9 13 5 7 - - 0.0
21/01:30am 21.6 - - - - SW 7 9 4 5 - - 0.0
21/01:00am 21.1 - - - - W 11 13 6 7 - - 0.0
21/12:30am 21.5 - - - - W 9 11 5 6 - - 0.0
21/12:00am 21.3 - - - - W 9 9 5 5 - - 0.0
 
Date/Time
WST
Temp
°C
App
Temp
°C
Dew
Point
Rel
Hum
%
Delta-T
°C
Wind Press
QNH
hPa
Press
MSL
hPa
Rain
since 9 am
mm
Dir
 
Spd
km/h
Gust
km/h
Spd
kts
Gust
kts
20/11:30pm 22.1 - - - - W 6 7 3 4 - - 0.0
20/11:00pm 22.4 - - - - W 11 13 6 7 - - 0.0
20/10:30pm 22.3 - - - - W 9 11 5 6 - - 0.0
20/10:00pm 22.9 - - - - NW 6 9 3 5 - - 0.0
20/09:30pm 22.7 - - - - WNW 9 13 5 7 - - 0.0

Other Formats:

Comma delimited format used in spreadsheet applications
http://www.bom.gov.au/fwo/IDW60801/IDW60801.95204.axf

JavaScript Object Notation format (JSON) in row-major order
http://www.bom.gov.au/fwo/IDW60801/IDW60801.95204.json